createdAt,value
2023-05-09T00:00:54.456Z,47.7143
2023-05-09T00:01:54.717Z,48.1429
2023-05-09T00:02:54.989Z,48.1429
2023-05-09T00:03:55.260Z,48
2023-05-09T00:04:55.486Z,48
2023-05-09T00:05:55.696Z,48.0714
2023-05-09T00:06:55.949Z,48.2857
2023-05-09T00:07:56.231Z,47.8571
2023-05-09T00:08:56.500Z,48
2023-05-09T00:09:56.722Z,48.2143
2023-05-09T00:10:56.984Z,48.2143
2023-05-09T00:11:57.293Z,48.4286
2023-05-09T00:12:57.723Z,48.4286
2023-05-09T00:13:57.957Z,48.3571
2023-05-09T00:14:58.189Z,48.3571
2023-05-09T00:15:58.561Z,48.7857
2023-05-09T00:16:58.958Z,48.7143
2023-05-09T00:17:59.435Z,48.7143
2023-05-09T00:18:59.466Z,48.9286
2023-05-09T00:19:59.785Z,48.9286
2023-05-09T00:21:00.156Z,49
2023-05-09T00:22:00.493Z,49
2023-05-09T00:23:00.930Z,49.1429
2023-05-09T00:24:01.154Z,49.1429
2023-05-09T00:25:01.564Z,49.2857
2023-05-09T00:26:01.841Z,49.3571
2023-05-09T00:27:02.218Z,49.5
2023-05-09T00:28:02.528Z,49.6429
2023-05-09T00:29:02.780Z,49.7143
2023-05-09T00:30:03.113Z,49.4286
2023-05-09T00:31:03.386Z,49.4286
2023-05-09T00:32:03.708Z,49.6429
2023-05-09T00:33:04.235Z,49.7143
2023-05-09T00:34:04.472Z,49.5714
2023-05-09T00:35:04.886Z,49.5
2023-05-09T00:36:05.256Z,49.8571
2023-05-09T00:37:05.606Z,49.6429
2023-05-09T00:38:05.913Z,49.7857
2023-05-09T00:39:06.350Z,49.7857
2023-05-09T00:40:06.708Z,50
2023-05-09T00:41:06.998Z,49.8571
2023-05-09T00:42:07.448Z,49.7143
2023-05-09T00:43:07.797Z,49.7857
2023-05-09T00:44:08.165Z,50.1429
2023-05-09T00:45:08.476Z,50.0714
2023-05-09T00:46:09.091Z,50
2023-05-09T00:47:09.452Z,50.1429
2023-05-09T00:48:09.878Z,50
2023-05-09T00:49:10.360Z,50
2023-05-09T00:50:10.747Z,49.8571
2023-05-09T00:51:11.108Z,50
2023-05-09T00:52:11.623Z,50.0714
2023-05-09T00:53:12.051Z,49.8571
2023-05-09T00:54:12.560Z,50.1429
2023-05-09T00:55:13.432Z,50
2023-05-09T00:56:13.586Z,50.4286
2023-05-09T00:57:13.955Z,50.1429
2023-05-09T00:58:14.370Z,50.1429
2023-05-09T00:59:16.977Z,50
2023-05-09T01:00:15.248Z,50
2023-05-09T01:01:15.825Z,50.3571
2023-05-09T01:02:16.196Z,50.5
2023-05-09T01:03:16.620Z,50.0714
2023-05-09T01:04:16.851Z,50.0714
2023-05-09T01:05:17.326Z,50.2857
2023-05-09T01:06:17.779Z,50.4286
2023-05-09T01:07:18.189Z,50.2143
2023-05-09T01:08:18.709Z,50.1429
2023-05-09T01:09:19.221Z,50.2857
2023-05-09T01:10:19.754Z,50.2143
2023-05-09T01:11:20.300Z,50.2857
2023-05-09T01:12:20.722Z,50.4286
2023-05-09T01:13:21.383Z,50.6429
2023-05-09T01:14:21.644Z,50.5714
2023-05-09T01:15:22.184Z,50.8571
2023-05-09T01:16:22.740Z,50.5714
2023-05-09T01:17:23.118Z,50.6429
2023-05-09T01:18:23.507Z,50.9286
2023-05-09T01:19:24.109Z,50.8571
2023-05-09T01:20:24.636Z,50.8571
2023-05-09T01:21:25.085Z,50.6429
2023-05-09T01:22:25.588Z,50.6429
2023-05-09T01:23:25.948Z,50.7143
2023-05-09T01:24:26.544Z,50.5714
2023-05-09T01:25:26.976Z,50.7857
2023-05-09T01:26:27.503Z,50.7143
2023-05-09T01:27:27.969Z,51.1429
2023-05-09T01:28:28.521Z,50.7143
2023-05-09T01:29:29.056Z,50.7857
2023-05-09T01:30:29.693Z,50.5714
2023-05-09T01:31:30.420Z,50.7143
2023-05-09T01:32:31.017Z,50.8571
2023-05-09T01:33:31.503Z,50.8571
2023-05-09T01:34:32.196Z,50.4286
2023-05-09T01:35:32.707Z,50.8571
2023-05-09T01:36:33.223Z,50.7143
2023-05-09T01:37:33.950Z,50.9286
2023-05-09T01:38:34.441Z,50.6429
2023-05-09T01:39:35.112Z,50.7857
2023-05-09T01:40:35.560Z,50.7857
2023-05-09T01:41:35.926Z,51.0714
2023-05-09T01:42:36.555Z,50.7857
2023-05-09T01:43:37.355Z,50.8571
2023-05-09T01:44:37.493Z,51.0714
2023-05-09T01:45:38.106Z,50.7857
2023-05-09T01:46:39.030Z,50.7857
2023-05-09T01:47:39.464Z,51.1429
2023-05-09T01:48:39.891Z,51.1429
2023-05-09T01:49:40.593Z,50.7857
2023-05-09T01:50:41.190Z,50.8571
2023-05-09T01:51:43.712Z,50.9286
2023-05-09T01:52:42.508Z,50.9286
2023-05-09T01:53:43.037Z,50.7143
2023-05-09T01:54:43.597Z,50.7857
2023-05-09T01:55:44.005Z,51.0714
2023-05-09T01:56:44.451Z,50.7143
2023-05-09T01:57:44.998Z,50.8571
2023-05-09T01:58:45.615Z,51.0714
2023-05-09T01:59:46.169Z,51.3571
2023-05-09T02:00:46.952Z,51
2023-05-09T02:01:47.630Z,50.9286
2023-05-09T02:02:48.320Z,50.9286
2023-05-09T02:03:49.108Z,51.1429
2023-05-09T02:04:49.827Z,51.5
2023-05-09T02:05:50.747Z,51.2143
2023-05-09T02:06:51.452Z,51.1429
2023-05-09T02:07:52.056Z,51.1429
2023-05-09T02:08:52.851Z,50.7857
2023-05-09T02:09:53.921Z,51
2023-05-09T02:10:54.653Z,51
2023-05-09T02:11:55.541Z,51
2023-05-09T02:12:56.250Z,51.0714
2023-05-09T02:13:57.024Z,50.9286
2023-05-09T02:14:57.929Z,50.7143
2023-05-09T02:15:58.676Z,50.7857
2023-05-09T02:16:59.559Z,50.8571
2023-05-09T02:18:00.535Z,50.7143
2023-05-09T02:19:01.472Z,50.7857
2023-05-09T02:20:01.645Z,51
2023-05-09T02:21:01.662Z,50.9286
2023-05-09T02:22:02.606Z,50.9286
2023-05-09T02:23:03.581Z,51.0714
2023-05-09T02:24:04.408Z,50.8571
2023-05-09T02:25:05.212Z,50.7143
2023-05-09T02:26:05.305Z,50.7143
2023-05-09T02:27:05.524Z,51
2023-05-09T02:28:06.472Z,50.7143
2023-05-09T02:29:06.557Z,51.1429
2023-05-09T02:30:07.523Z,50.5714
2023-05-09T02:31:08.488Z,50.5
2023-05-09T02:32:09.370Z,50.5
2023-05-09T02:33:09.380Z,50.7857
2023-05-09T02:34:10.175Z,50.7143
2023-05-09T02:35:11.145Z,50.5
2023-05-09T02:36:12.019Z,50.5714
2023-05-09T02:37:12.106Z,50.1429
2023-05-09T02:38:12.809Z,50.4286
2023-05-09T02:39:13.506Z,50.2857
2023-05-09T02:40:14.166Z,50.3571
2023-05-09T02:41:14.792Z,50.5
2023-05-09T02:42:15.270Z,50
2023-05-09T02:43:15.970Z,50.3571
2023-05-09T02:44:16.906Z,50.2857
2023-05-09T02:45:17.478Z,50.0714
2023-05-09T02:46:18.161Z,50.1429
2023-05-09T02:47:19.047Z,49.9286
2023-05-09T02:48:19.581Z,50
2023-05-09T02:49:31.390Z,50.2143
2023-05-09T02:50:20.955Z,50
2023-05-09T02:51:21.774Z,49.8571
2023-05-09T02:52:22.574Z,50
2023-05-09T02:53:23.220Z,49.8571
2023-05-09T02:54:23.829Z,49.9286
2023-05-09T02:55:24.522Z,49.7143
2023-05-09T02:56:25.326Z,49.8571
2023-05-09T02:57:26.043Z,49.9286
2023-05-09T02:58:26.724Z,50.0714
2023-05-09T02:59:27.574Z,50.1429
2023-05-09T03:00:28.284Z,50.0714
2023-05-09T03:01:29.089Z,49.7857
2023-05-09T03:02:29.931Z,50.1429
2023-05-09T03:03:30.885Z,50.0714
2023-05-09T03:04:31.499Z,49.8571
2023-05-09T03:05:32.209Z,50.1429
2023-05-09T03:06:32.392Z,50.2143
2023-05-09T03:07:32.466Z,50.1429
2023-05-09T03:08:32.541Z,49.8571
2023-05-09T03:09:33.274Z,49.6429
2023-05-09T03:10:34.172Z,49.7857
2023-05-09T03:11:34.985Z,50.0714
2023-05-09T03:12:35.810Z,49.9286
2023-05-09T03:13:36.807Z,49.6429
2023-05-09T03:14:37.563Z,49.7857
2023-05-09T03:15:37.727Z,49.9286
2023-05-09T03:16:38.680Z,49.9286
2023-05-09T03:17:39.484Z,50
2023-05-09T03:18:40.477Z,50.1429
2023-05-09T03:19:41.089Z,49.9286
2023-05-09T03:20:41.108Z,49.8571
2023-05-09T03:21:41.876Z,49.8571
2023-05-09T03:22:41.987Z,49.9286
2023-05-09T03:23:42.991Z,50.0714
2023-05-09T03:24:58.267Z,50.0714
2023-05-09T03:25:43.658Z,50.0714
2023-05-09T03:26:44.497Z,50.0714
2023-05-09T03:27:45.360Z,50.2857
2023-05-09T03:28:45.417Z,50.5
2023-05-09T03:29:46.055Z,49.9286
2023-05-09T03:30:46.175Z,50.1429
2023-05-09T03:31:47.105Z,50.2143
2023-05-09T03:32:47.850Z,50.2143
2023-05-09T03:33:47.879Z,50.1429
2023-05-09T03:34:48.725Z,50.2857
2023-05-09T03:35:48.884Z,50.2857
2023-05-09T03:36:48.982Z,50.5
2023-05-09T03:37:50.032Z,50.5714
2023-05-09T03:38:50.926Z,50.4286
2023-05-09T03:39:51.828Z,50.4286
2023-05-09T03:40:51.843Z,50.5
2023-05-09T03:41:51.893Z,50.2143
2023-05-09T03:42:52.103Z,50.2857
2023-05-09T03:43:52.326Z,50.3571
2023-05-09T03:44:52.462Z,50.4286
2023-05-09T03:45:52.488Z,50.1429
2023-05-09T03:46:53.472Z,50.2857
2023-05-09T03:47:53.555Z,50.4286
2023-05-09T03:48:53.698Z,50.2857
2023-05-09T03:49:53.800Z,50.7143
2023-05-09T03:50:54.066Z,50.2143
2023-05-09T03:51:54.174Z,50.1429
2023-05-09T03:52:54.584Z,50
2023-05-09T03:53:54.994Z,49.7143
2023-05-09T03:54:55.495Z,49.8571
2023-05-09T03:55:55.694Z,49.7857
2023-05-09T03:56:55.736Z,49.5
2023-05-09T03:57:55.913Z,49.5
2023-05-09T03:58:56.241Z,49.3571
2023-05-09T03:59:56.608Z,49.6429
2023-05-09T04:00:56.982Z,50.1429
2023-05-09T04:01:57.553Z,49.5
2023-05-09T04:02:58.126Z,49.8571
2023-05-09T04:03:58.354Z,49.4286
2023-05-09T04:04:58.712Z,49.4286
2023-05-09T04:05:58.814Z,49.6429
2023-05-09T04:06:59.595Z,50.0714
2023-05-09T04:08:00.199Z,49.8571
2023-05-09T04:09:00.617Z,50
2023-05-09T04:10:01.165Z,49.9286
2023-05-09T04:11:02.112Z,49.7857
2023-05-09T04:12:02.336Z,49.7143
2023-05-09T04:13:03.190Z,50.1429
2023-05-09T04:14:03.777Z,49.6429
2023-05-09T04:15:04.600Z,49.7857
2023-05-09T04:16:05.252Z,49.6429
2023-05-09T04:17:06.145Z,50.0714
2023-05-09T04:18:07.055Z,49.7143
2023-05-09T04:19:07.342Z,49.7143
2023-05-09T04:20:07.930Z,49.7143
2023-05-09T04:21:08.759Z,49.7143
2023-05-09T04:22:09.188Z,49.3571
2023-05-09T04:23:10.069Z,49.5
2023-05-09T04:24:11.045Z,49.5
2023-05-09T04:25:11.842Z,49.3571
2023-05-09T04:26:12.314Z,49.1429
2023-05-09T04:27:13.123Z,49.2143
2023-05-09T04:28:13.690Z,49.2857
2023-05-09T04:29:14.123Z,49.4286
2023-05-09T04:30:14.843Z,49.5
2023-05-09T04:31:15.553Z,49.2143
2023-05-09T04:32:15.749Z,49.0714
2023-05-09T04:33:16.528Z,49.3571
2023-05-09T04:34:17.336Z,49.1429
2023-05-09T04:35:20.520Z,48.7857
2023-05-09T04:36:19.086Z,49.0714
2023-05-09T04:37:19.446Z,49.5
2023-05-09T04:38:19.633Z,49.5714
2023-05-09T04:39:20.490Z,49.4286
2023-05-09T04:40:20.621Z,49.2143
2023-05-09T04:41:21.020Z,49.4286
2023-05-09T04:42:21.249Z,49.4286
2023-05-09T04:43:22.288Z,48.8571
2023-05-09T04:44:22.326Z,48.6429
2023-05-09T04:45:22.690Z,49.1429
2023-05-09T04:46:25.572Z,49.2143
2023-05-09T04:47:23.995Z,48.7143
2023-05-09T04:48:24.683Z,48.2143
2023-05-09T04:49:25.150Z,48.2857
2023-05-09T04:50:25.922Z,48.6429
2023-05-09T04:51:26.866Z,48.5
2023-05-09T04:52:27.783Z,48.2143
2023-05-09T04:53:27.880Z,48.3571
2023-05-09T04:54:28.873Z,48.4286
2023-05-09T04:55:29.208Z,48.0714
2023-05-09T04:56:30.364Z,48.2857
2023-05-09T04:57:30.981Z,48.0714
2023-05-09T04:58:31.493Z,47.7857
2023-05-09T04:59:32.353Z,48.2143
2023-05-09T05:00:32.669Z,47.7857
2023-05-09T05:01:33.134Z,48.1429
2023-05-09T05:02:33.242Z,48.4286
2023-05-09T05:03:33.467Z,48.7143
2023-05-09T05:04:33.634Z,48.7857
2023-05-09T05:05:35.948Z,48.2143
2023-05-09T05:06:34.046Z,47.7143
2023-05-09T05:07:34.219Z,47.6429
2023-05-09T05:08:35.061Z,48.2857
2023-05-09T05:09:35.248Z,48.5
2023-05-09T05:10:35.553Z,48.3571
2023-05-09T05:11:36.218Z,48
2023-05-09T05:12:36.332Z,48.2143
2023-05-09T05:13:36.566Z,49
2023-05-09T05:14:37.433Z,48.4286
2023-05-09T05:15:38.385Z,48
2023-05-09T05:16:39.118Z,48.2143
2023-05-09T05:17:39.744Z,48.0714
2023-05-09T05:18:40.591Z,48.2143
2023-05-09T05:19:41.463Z,48
2023-05-09T05:20:42.121Z,47.3571
2023-05-09T05:21:42.908Z,47.8571
2023-05-09T05:22:43.446Z,47.2857
2023-05-09T05:23:44.319Z,47.0714
2023-05-09T05:24:44.999Z,47.1429
2023-05-09T05:25:45.647Z,47.4286
2023-05-09T05:26:46.001Z,47.1429
2023-05-09T05:27:46.310Z,47.2857
2023-05-09T05:28:46.454Z,47.4286
2023-05-09T05:29:46.704Z,47.7143
2023-05-09T05:30:46.995Z,47.5714
2023-05-09T05:31:47.154Z,47.2143
2023-05-09T05:32:47.951Z,47.3571
2023-05-09T05:33:48.163Z,46.5
2023-05-09T05:34:49.008Z,46.5
2023-05-09T05:35:49.696Z,46.9286
2023-05-09T05:36:50.329Z,47.2857
2023-05-09T05:37:51.723Z,47
2023-05-09T05:38:51.500Z,46.5
2023-05-09T05:39:52.337Z,46.6429
2023-05-09T05:40:53.056Z,46.9286
2023-05-09T05:41:53.819Z,46.4286
2023-05-09T05:42:54.532Z,46.6429
2023-05-09T05:43:54.684Z,47.3571
2023-05-09T05:44:55.508Z,47
2023-05-09T05:45:56.473Z,46.7857
2023-05-09T05:46:56.545Z,46.5714
2023-05-09T05:47:56.713Z,46.2857
2023-05-09T05:48:56.970Z,45.9286
2023-05-09T05:49:57.746Z,45.5
2023-05-09T05:50:58.469Z,46
2023-05-09T05:51:58.574Z,45.7143
2023-05-09T05:52:58.761Z,45.1429
2023-05-09T05:53:59.108Z,45.2857
2023-05-09T05:55:00.003Z,45.3571
2023-05-09T05:56:00.437Z,44.8571
2023-05-09T05:57:00.725Z,44
2023-05-09T05:58:00.877Z,43.7857
2023-05-09T05:59:01.510Z,43.3571
2023-05-09T06:00:02.260Z,42.9286
2023-05-09T06:01:02.327Z,42.2857
2023-05-09T06:02:02.786Z,42.1429
2023-05-09T06:03:03.126Z,42.5714
2023-05-09T06:04:03.254Z,42.2143
2023-05-09T06:05:03.763Z,41.5
2023-05-09T06:06:04.197Z,40.9286
2023-05-09T06:07:04.783Z,40.8571
2023-05-09T06:08:05.171Z,40.6429
2023-05-09T06:09:05.439Z,40.2857
2023-05-09T06:10:06.445Z,39.4286
2023-05-09T06:11:06.422Z,38.9286
2023-05-09T06:12:07.138Z,37.8571
2023-05-09T06:13:07.803Z,38.2857
2023-05-09T06:14:08.561Z,37.6429
2023-05-09T06:15:09.350Z,36
2023-05-09T06:16:18.641Z,35.0714
2023-05-09T06:17:09.902Z,34.5
2023-05-09T06:18:10.520Z,33.2857
2023-05-09T06:19:11.246Z,31.9286
2023-05-09T06:20:11.677Z,31.5
2023-05-09T06:21:12.430Z,30.8571
2023-05-09T06:22:12.762Z,30.8571
2023-05-09T06:23:13.546Z,30.2143
2023-05-09T06:24:23.518Z,29.8571
2023-05-09T06:25:15.172Z,29.5714
2023-05-09T06:26:15.377Z,29.5714
2023-05-09T06:27:15.918Z,29.4286
2023-05-09T06:28:16.742Z,28.8571
2023-05-09T06:29:17.556Z,28.7143
2023-05-09T06:30:25.619Z,28.5714
2023-05-09T06:31:18.863Z,27.2143
2023-05-09T06:32:19.488Z,26.5714
2023-05-09T06:33:20.360Z,26.3571
2023-05-09T06:34:21.319Z,26.4286
2023-05-09T06:35:21.315Z,26.3571
2023-05-09T06:36:22.236Z,26.2857
2023-05-09T06:37:22.369Z,26.2143
2023-05-09T06:38:22.528Z,25.2857
2023-05-09T06:39:23.437Z,24.7857
2023-05-09T06:40:24.147Z,24.2143
2023-05-09T06:41:24.654Z,24.3571
2023-05-09T06:42:24.963Z,24.0714
2023-05-09T06:43:25.926Z,24.2143
2023-05-09T06:44:26.854Z,23.7143
2023-05-09T06:45:27.375Z,23.7143
2023-05-09T06:46:27.337Z,23.9286
2023-05-09T06:47:27.490Z,24.0714
2023-05-09T06:48:27.977Z,23.7857
2023-05-09T06:49:28.122Z,23.9286
2023-05-09T06:50:29.773Z,24.2857
2023-05-09T06:51:28.965Z,24
2023-05-09T06:52:29.252Z,23.6429
2023-05-09T06:53:30.195Z,23.2143
2023-05-09T06:54:30.584Z,23.4286
2023-05-09T06:55:31.107Z,23.2143
2023-05-09T06:56:31.507Z,22.7857
2023-05-09T06:57:31.700Z,23.2143
2023-05-09T06:58:32.544Z,22.4286
2023-05-09T06:59:33.115Z,22.6429
2023-05-09T07:00:33.199Z,22.4286
2023-05-09T07:01:33.983Z,22.7857
2023-05-09T07:02:34.817Z,22.7143
2023-05-09T07:03:35.684Z,22.2857
2023-05-09T07:04:36.694Z,22.6429
2023-05-09T07:05:37.202Z,22.4286
2023-05-09T07:06:37.934Z,23
2023-05-09T07:07:38.196Z,23
2023-05-09T07:08:38.363Z,22.4286
2023-05-09T07:09:38.999Z,22.4286
2023-05-09T07:10:39.717Z,22.2857
2023-05-09T07:11:40.178Z,21.7857
2023-05-09T07:12:40.362Z,21.2857
2023-05-09T07:13:40.378Z,21.7143
2023-05-09T07:14:40.721Z,21.1429
2023-05-09T07:15:48.496Z,20.8571
2023-05-09T07:16:41.270Z,21.2857
2023-05-09T07:17:41.281Z,20.2857
2023-05-09T07:18:41.448Z,20.5
2023-05-09T07:19:41.974Z,20.2143
2023-05-09T07:20:42.293Z,20.1429
2023-05-09T07:21:43.244Z,19.5
2023-05-09T07:22:43.432Z,19.0714
2023-05-09T07:23:43.873Z,19.2143
2023-05-09T07:24:44.106Z,19.2143
2023-05-09T07:25:44.654Z,19.5
2023-05-09T07:26:45.405Z,19.6429
2023-05-09T07:27:46.132Z,19.2143
2023-05-09T07:28:46.341Z,19.1429
2023-05-09T07:29:46.957Z,19.6429
2023-05-09T07:30:47.334Z,19.5714
2023-05-09T07:31:47.850Z,19.6429
2023-05-09T07:32:48.879Z,19.6429
2023-05-09T07:33:49.636Z,19.1429
2023-05-09T07:34:50.297Z,18.6429
2023-05-09T07:35:50.800Z,19.0714
2023-05-09T07:36:51.036Z,19.7857
2023-05-09T07:37:51.545Z,19
2023-05-09T07:38:52.302Z,18.9286
2023-05-09T07:39:53.304Z,18.7857
2023-05-09T07:40:54.295Z,17.8571
2023-05-09T07:41:54.644Z,18.4286
2023-05-09T07:42:55.403Z,17.7143
2023-05-09T07:43:55.415Z,17.3571
2023-05-09T07:44:55.718Z,17.5
2023-05-09T07:45:57.080Z,18
2023-05-09T07:46:57.663Z,18.5
2023-05-09T07:47:57.739Z,18.2857
2023-05-09T07:48:57.664Z,18.2143
2023-05-09T07:49:58.152Z,18.8571
2023-05-09T07:50:58.428Z,18.6429
2023-05-09T07:51:59.315Z,18.7143
2023-05-09T07:53:00.134Z,18.9286
2023-05-09T07:54:00.602Z,19.7857
2023-05-09T07:55:00.783Z,20.7143
2023-05-09T07:56:01.766Z,19.7143
2023-05-09T07:57:02.761Z,19.7857
2023-05-09T07:58:02.846Z,20.0714
2023-05-09T07:59:03.830Z,20.4286
2023-05-09T08:00:04.682Z,20.8571
2023-05-09T08:01:04.883Z,21.8571
2023-05-09T08:02:05.071Z,22.0714
2023-05-09T08:03:06.375Z,22.1429
2023-05-09T08:04:07.078Z,22.7143
2023-05-09T08:05:07.003Z,22.9286
2023-05-09T08:06:08.167Z,22.8571
2023-05-09T08:07:09.194Z,23.3571
2023-05-09T08:08:09.451Z,23.2143
2023-05-09T08:09:09.660Z,23.3571
2023-05-09T08:10:10.122Z,23.2143
2023-05-09T08:11:10.181Z,23.2857
2023-05-09T08:12:10.350Z,23.8571
2023-05-09T08:13:10.621Z,23.9286
2023-05-09T08:14:10.917Z,23.6429
2023-05-09T08:15:11.398Z,23.6429
2023-05-09T08:16:11.566Z,23.2143
2023-05-09T08:17:11.934Z,22.7143
2023-05-09T08:18:12.913Z,22.6429
2023-05-09T08:19:13.504Z,22.7143
2023-05-09T08:20:13.731Z,22.8571
2023-05-09T08:21:14.677Z,23.2857
2023-05-09T08:22:15.534Z,22.7143
2023-05-09T08:23:16.162Z,23.1429
2023-05-09T08:24:16.920Z,23.7857
2023-05-09T08:25:18.074Z,24
2023-05-09T08:26:18.980Z,23.7857
2023-05-09T08:27:19.906Z,24
2023-05-09T08:28:20.906Z,23.8571
2023-05-09T08:29:21.562Z,23.5714
2023-05-09T08:30:22.059Z,23.7143
2023-05-09T08:31:22.638Z,23.7143
2023-05-09T08:32:23.227Z,24.8571
2023-05-09T08:33:23.846Z,24.8571
2023-05-09T08:34:24.476Z,25.5
2023-05-09T08:35:25.176Z,24.9286
2023-05-09T08:36:25.941Z,25.2857
2023-05-09T08:37:26.733Z,25.5
2023-05-09T08:38:27.892Z,26.3571
2023-05-09T08:39:28.311Z,25.5714
2023-05-09T08:40:29.266Z,24.7143
2023-05-09T08:41:29.558Z,24.7143
2023-05-09T08:42:30.510Z,24.8571
2023-05-09T08:43:31.570Z,24.2143
2023-05-09T08:44:32.398Z,24.2143
2023-05-09T08:45:32.890Z,23.2143
2023-05-09T08:46:33.920Z,23.5714
2023-05-09T08:47:34.364Z,23.7857
2023-05-09T08:48:35.992Z,24.0714
2023-05-09T08:49:35.272Z,23.7857
2023-05-09T08:50:36.384Z,24.5714
2023-05-09T08:51:37.096Z,24.1429
2023-05-09T08:52:37.880Z,25.2143
2023-05-09T08:53:38.237Z,25.2143
2023-05-09T08:54:39.224Z,26.5714
2023-05-09T08:55:40.149Z,26.0714
2023-05-09T08:56:40.217Z,26
2023-05-09T08:57:40.749Z,27.5714
2023-05-09T08:58:40.811Z,27.4286
2023-05-09T08:59:41.843Z,27.6429
2023-05-09T09:00:42.451Z,27.9286
2023-05-09T09:01:43.326Z,29.0714
2023-05-09T09:02:43.705Z,29.9286
2023-05-09T09:03:44.302Z,28.9286
2023-05-09T09:04:45.222Z,29.1429
2023-05-09T09:05:45.831Z,28.4286
2023-05-09T09:06:46.651Z,28.9286
2023-05-09T09:07:46.674Z,28.8571
2023-05-09T09:08:46.970Z,28.9286
2023-05-09T09:09:47.710Z,28.7857
2023-05-09T09:10:48.731Z,29.2857
2023-05-09T09:11:48.766Z,29.2143
2023-05-09T09:12:50.357Z,29.7143
2023-05-09T09:13:50.083Z,29.2857
2023-05-09T09:14:50.605Z,30.8571
2023-05-09T09:15:50.735Z,30.6429
2023-05-09T09:16:51.246Z,29.2143
2023-05-09T09:17:52.259Z,28.7143
2023-05-09T09:18:52.675Z,30.4286
2023-05-09T09:19:52.724Z,28.6429
2023-05-09T09:20:53.562Z,29.5
2023-05-09T09:21:53.796Z,30.3571
2023-05-09T09:22:54.636Z,29.8571
2023-05-09T09:23:55.125Z,31.1429
2023-05-09T09:24:55.577Z,30.6429
2023-05-09T09:25:57.910Z,30.8571
2023-05-09T09:26:57.678Z,30.1429
2023-05-09T09:27:58.670Z,29.3571
2023-05-09T09:28:58.912Z,30.0714
2023-05-09T09:29:59.930Z,31.5
2023-05-09T09:30:59.912Z,30
2023-05-09T09:32:00.204Z,29.5
2023-05-09T09:33:00.774Z,29.0714
2023-05-09T09:34:00.800Z,29.5714
2023-05-09T09:35:01.328Z,30.3571
2023-05-09T09:36:02.378Z,30.7143
2023-05-09T09:37:03.034Z,31.5
2023-05-09T09:38:03.328Z,31
2023-05-09T09:39:03.600Z,30.7143
2023-05-09T09:40:03.741Z,31.8571
2023-05-09T09:41:04.499Z,32.7143
2023-05-09T09:42:04.986Z,31.4286
2023-05-09T09:43:05.734Z,30
2023-05-09T09:44:07.403Z,29.9286
2023-05-09T09:45:07.540Z,30.1429
2023-05-09T09:46:08.677Z,30.5
2023-05-09T09:47:09.654Z,30.8571
2023-05-09T09:48:09.959Z,30.6429
2023-05-09T09:49:10.993Z,32.8571
2023-05-09T09:50:11.193Z,31.1429
2023-05-09T09:51:11.968Z,32.6429
2023-05-09T09:52:11.846Z,30.8571
2023-05-09T09:53:12.146Z,30.6429
2023-05-09T09:54:12.257Z,30.2857
2023-05-09T09:55:12.900Z,31.4286
2023-05-09T09:56:13.569Z,30.9286
2023-05-09T09:57:13.773Z,30.5714
2023-05-09T09:58:13.867Z,31.7143
2023-05-09T09:59:14.060Z,32.2857
2023-05-09T10:00:14.379Z,30.3571
2023-05-09T10:01:14.880Z,30.8571
2023-05-09T10:02:15.206Z,30.9286
2023-05-09T10:03:15.527Z,32.2143
2023-05-09T10:04:16.532Z,30.6429
2023-05-09T10:05:17.195Z,30.3571
2023-05-09T10:06:17.624Z,31.8571
2023-05-09T10:07:17.961Z,30.5714
2023-05-09T10:08:18.741Z,31.1429
2023-05-09T10:09:19.736Z,29.4286
2023-05-09T10:10:20.102Z,29.7143
2023-05-09T10:11:21.023Z,30
2023-05-09T10:12:21.568Z,30.1429
2023-05-09T10:13:22.051Z,30.4286
2023-05-09T10:14:22.924Z,30.7143
2023-05-09T10:15:22.983Z,31.5714
2023-05-09T10:16:31.956Z,30.7857
2023-05-09T10:17:24.089Z,31.0714
2023-05-09T10:18:24.904Z,31
2023-05-09T10:19:25.588Z,29.9286
2023-05-09T10:20:26.170Z,30.4286
2023-05-09T10:21:27.002Z,30.7143
2023-05-09T10:22:27.669Z,30.2857
2023-05-09T10:23:27.892Z,30.2143
2023-05-09T10:24:29.429Z,30.6429
2023-05-09T10:25:29.743Z,29.5
2023-05-09T10:26:30.692Z,29.4286
2023-05-09T10:27:31.307Z,30.1429
2023-05-09T10:28:31.255Z,30.7857
2023-05-09T10:29:31.366Z,30.5
2023-05-09T10:30:33.952Z,29.3571
2023-05-09T10:31:31.942Z,29.7143
2023-05-09T10:32:31.988Z,30.2857
2023-05-09T10:33:32.639Z,29.2857
2023-05-09T10:34:33.062Z,30.5
2023-05-09T10:35:33.528Z,30.2857
2023-05-09T10:36:34.073Z,30.5714
2023-05-09T10:37:34.282Z,30.9286
2023-05-09T10:38:35.422Z,31
2023-05-09T10:39:35.474Z,29.2857
2023-05-09T10:40:36.122Z,29.2857
2023-05-09T10:41:36.622Z,28.7857
2023-05-09T10:42:37.559Z,31.5
2023-05-09T10:43:38.259Z,31.5714
2023-05-09T10:44:38.922Z,30.3571
2023-05-09T10:45:39.548Z,29.5714
2023-05-09T10:46:39.672Z,29.2857
2023-05-09T10:47:39.861Z,28.9286
2023-05-09T10:48:40.343Z,28.5
2023-05-09T10:49:40.638Z,29.8571
2023-05-09T10:50:41.701Z,29.7143
2023-05-09T10:51:42.134Z,29.3571
2023-05-09T10:52:42.822Z,29.4286
2023-05-09T10:53:42.907Z,29.2143
2023-05-09T10:54:43.177Z,29.4286
2023-05-09T10:55:43.923Z,29.8571
2023-05-09T10:56:44.134Z,30.2143
2023-05-09T10:57:44.414Z,29.3571
2023-05-09T10:58:44.945Z,29.5714
2023-05-09T10:59:45.535Z,29.6429
2023-05-09T11:00:46.115Z,29.4286
2023-05-09T11:01:46.628Z,29.7143
2023-05-09T11:02:46.624Z,30.4286
2023-05-09T11:03:47.522Z,30
2023-05-09T11:04:48.012Z,29.0714
2023-05-09T11:05:48.829Z,28.8571
2023-05-09T11:06:49.809Z,29.9286
2023-05-09T11:07:50.091Z,29.8571
2023-05-09T11:08:50.784Z,29.1429
2023-05-09T11:09:51.418Z,29
2023-05-09T11:10:52.072Z,29.0714
2023-05-09T11:11:52.830Z,29.7143
2023-05-09T11:12:54.378Z,28.3571
2023-05-09T11:13:53.284Z,29.0714
2023-05-09T11:14:54.067Z,30.9286
2023-05-09T11:15:54.759Z,30.0714
2023-05-09T11:16:54.982Z,31.5
2023-05-09T11:17:55.955Z,30.7857
2023-05-09T11:18:56.010Z,30.7143
2023-05-09T11:19:56.110Z,30.0714
2023-05-09T11:20:56.321Z,30.4286
2023-05-09T11:21:56.695Z,30.5714
2023-05-09T11:22:56.759Z,29.7143
2023-05-09T11:23:57.952Z,30.1429
2023-05-09T11:24:58.573Z,29.2857
2023-05-09T11:25:59.248Z,28.7143
2023-05-09T11:26:59.613Z,29.7143
2023-05-09T11:28:00.340Z,30.5714
2023-05-09T11:29:00.868Z,30
2023-05-09T11:30:01.545Z,29.2857
2023-05-09T11:31:02.118Z,29.8571
2023-05-09T11:32:02.723Z,29.6429
2023-05-09T11:33:03.174Z,30.2857
2023-05-09T11:34:04.064Z,30.8571
2023-05-09T11:35:04.899Z,30.2143
2023-05-09T11:36:05.110Z,30.2857
2023-05-09T11:37:06.088Z,30.1429
2023-05-09T11:38:06.817Z,29.9286
2023-05-09T11:39:06.896Z,29.3571
2023-05-09T11:40:07.099Z,29.3571
2023-05-09T11:41:08.041Z,31.2143
2023-05-09T11:42:08.450Z,29.5
2023-05-09T11:43:08.520Z,31.2143
2023-05-09T11:44:09.616Z,30.3571
2023-05-09T11:45:09.821Z,29.1429
2023-05-09T11:46:10.310Z,28.2143
2023-05-09T11:47:10.397Z,28.0714
2023-05-09T11:48:11.314Z,27.9286
2023-05-09T11:49:12.270Z,29.5714
2023-05-09T11:50:12.855Z,29.5714
2023-05-09T11:51:13.569Z,29.2143
2023-05-09T11:52:13.583Z,28.9286
2023-05-09T11:53:13.493Z,28.4286
2023-05-09T11:54:14.628Z,28.7857
2023-05-09T11:55:14.963Z,29.1429
2023-05-09T11:56:15.024Z,29.1429
2023-05-09T11:57:15.493Z,28.6429
2023-05-09T11:58:16.933Z,29.4286
2023-05-09T11:59:17.124Z,29.5
2023-05-09T12:00:17.467Z,29.7857
2023-05-09T12:01:17.862Z,30.7857
2023-05-09T12:02:18.180Z,31.0714
2023-05-09T12:03:19.366Z,30.0714
2023-05-09T12:04:20.083Z,29.3571
2023-05-09T12:05:20.652Z,30.1429
2023-05-09T12:06:21.597Z,30.5
2023-05-09T12:07:22.534Z,29.1429
2023-05-09T12:08:23.240Z,30.7143
2023-05-09T12:09:24.365Z,32.5714
2023-05-09T12:10:25.492Z,31.6429
2023-05-09T12:11:26.423Z,29.5
2023-05-09T12:12:27.088Z,30.0714
2023-05-09T12:13:27.780Z,28.5
2023-05-09T12:14:28.170Z,27.7857
2023-05-09T12:15:28.939Z,28
2023-05-09T12:16:29.758Z,27.3571
2023-05-09T12:17:30.532Z,28.2857
2023-05-09T12:18:31.351Z,28.3571
2023-05-09T12:19:32.015Z,28.2857
2023-05-09T12:20:32.830Z,28.4286
2023-05-09T12:21:33.652Z,28.5
2023-05-09T12:22:34.239Z,27.3571
2023-05-09T12:23:34.497Z,27.9286
2023-05-09T12:24:35.486Z,28.4286
2023-05-09T12:25:36.353Z,29